Time;durP1;ratioP1;P1;durP2;ratioP2;P2;SDS_P1;SDS_P2;PMS_P1;PMS_P2;Temp;Humidity;BMP_temperature;BMP_pressure;BME280_temperature;BME280_humidity;BME280_pressure;Samples;Min_cycle;Max_cycle;Signal;HPM_P1;HPM_P2
2022/10/17 00:00:56;;;;;;;11.73;7.13;;;;;;;-141.28;100.00;49337.19;5140386;27;20440;-74
2022/10/17 00:03:23;;;;;;;11.00;6.50;;;;;;;-141.28;100.00;49335.22;5140929;27;20451;-75
2022/10/17 00:05:51;;;;;;;11.23;7.13;;;;;;;-141.28;100.00;49337.19;5141775;27;20213;-77
2022/10/17 00:08:20;;;;;;;10.53;6.90;;;;;;;-141.28;100.00;49348.97;5142178;27;20489;-73
2022/10/17 00:10:56;;;;;;;11.10;6.63;;;;;;;-141.28;100.00;49364.66;5141055;27;20636;-77
2022/10/17 00:13:23;;;;;;;9.90;5.93;;;;;;;-141.28;100.00;49352.88;5139392;27;20221;-76
2022/10/17 00:15:50;;;;;;;7.20;4.83;;;;;;;-141.28;100.00;49362.69;5120505;27;20202;-77
2022/10/17 00:18:17;;;;;;;10.83;5.30;;;;;;;-141.28;100.00;49372.50;5133085;27;20194;-75
2022/10/17 00:20:44;;;;;;;6.50;4.67;;;;;;;-141.28;100.00;49345.03;5133101;27;20190;-76
2022/10/17 00:23:11;;;;;;;6.03;4.30;;;;;;;-141.28;100.00;49382.31;5132932;27;20447;-76
2022/10/17 00:25:40;;;;;;;7.63;4.97;;;;;;;-141.28;100.00;49380.34;5132596;27;20452;-79
2022/10/17 00:28:08;;;;;;;6.70;4.70;;;;;;;-141.28;100.00;49376.44;5134776;27;20454;-75
2022/10/17 00:30:35;;;;;;;6.40;4.73;;;;;;;-141.28;100.00;49366.63;5103205;27;20933;-76
2022/10/17 00:33:03;;;;;;;6.37;4.80;;;;;;;-141.28;100.00;49352.88;5134529;27;20482;-78
2022/10/17 00:35:31;;;;;;;7.50;5.27;;;;;;;-141.28;100.00;49325.41;5134231;27;20546;-75
2022/10/17 00:37:58;;;;;;;8.97;5.47;;;;;;;-141.28;100.00;49368.59;5136076;27;20448;-74
2022/10/17 00:40:25;;;;;;;7.50;4.93;;;;;;;-141.28;100.00;49368.59;5134179;27;20444;-76
2022/10/17 00:42:54;;;;;;;6.70;4.53;;;;;;;-141.28;100.00;49376.44;5139787;27;20459;-76
2022/10/17 00:45:24;;;;;;;8.73;5.00;;;;;;;-141.28;100.00;49380.34;5143671;27;20455;-75
2022/10/17 00:47:56;;;;;;;7.80;5.03;;;;;;;-141.28;100.00;49364.66;5137019;27;20452;-79
2022/10/17 00:50:24;;;;;;;8.87;5.77;;;;;;;-141.28;100.00;49380.34;5132694;28;20462;-76
2022/10/17 00:52:52;;;;;;;6.90;5.13;;;;;;;-141.28;100.00;49366.63;5113777;28;20483;-75
2022/10/17 00:55:23;;;;;;;8.53;5.57;;;;;;;-141.28;100.00;49368.59;5133423;28;20508;-76
2022/10/17 00:57:52;;;;;;;10.10;5.30;;;;;;;-141.28;100.00;49396.06;5134675;27;20858;-76
2022/10/17 01:00:20;;;;;;;6.93;5.23;;;;;;;-141.28;100.00;49364.66;5135783;28;20537;-75
2022/10/17 01:02:48;;;;;;;10.03;5.67;;;;;;;-141.28;100.00;49396.06;5133435;28;20458;-79
2022/10/17 01:05:16;;;;;;;6.83;5.13;;;;;;;-141.28;100.00;49372.50;5132288;28;20206;-78
2022/10/17 01:07:44;;;;;;;8.23;5.07;;;;;;;-141.28;100.00;49396.06;5132587;28;20459;-76
2022/10/17 01:10:13;;;;;;;7.20;4.93;;;;;;;-141.28;100.00;49401.94;5132504;28;20483;-76
2022/10/17 01:12:55;;;;;;;8.40;5.73;;;;;;;-141.28;100.00;49399.97;5132424;28;20489;-76
2022/10/17 01:15:33;;;;;;;12.37;6.07;;;;;;;-141.28;100.00;49411.75;5132436;28;20448;-76
2022/10/17 01:18:12;;;;;;;7.73;5.53;;;;;;;-141.28;100.00;49399.97;5132885;28;20455;-81
2022/10/17 01:21:05;;;;;;;11.17;6.03;;;;;;;-141.28;100.00;49447.06;5132238;28;20954;-78
2022/10/17 01:24:00;;;;;;;15.13;5.97;;;;;;;-141.28;100.00;49435.31;5132287;28;20513;-77
2022/10/17 01:26:40;;;;;;;12.97;6.43;;;;;;;-141.28;100.00;49411.75;5123388;28;20467;-76
2022/10/17 01:29:36;;;;;;;13.07;7.07;;;;;;;-141.28;100.00;49411.75;5131921;28;20440;-76
2022/10/17 01:32:10;;;;;;;11.10;6.47;;;;;;;-141.28;100.00;49427.44;5128238;28;20977;-76
2022/10/17 01:34:50;;;;;;;14.20;6.37;;;;;;;-141.28;100.00;49415.69;5132295;28;20483;-79
2022/10/17 01:37:22;;;;;;;13.33;7.63;;;;;;;-141.28;100.00;49396.06;5133163;27;20439;-76
2022/10/17 01:39:53;;;;;;;15.93;8.77;;;;;;;-141.28;100.00;49419.59;5135868;27;20440;-76
2022/10/17 01:42:25;;;;;;;14.73;7.43;;;;;;;-141.28;100.00;49372.50;5136361;27;20435;-77
2022/10/17 01:44:57;;;;;;;16.73;9.37;;;;;;;-141.28;100.00;49462.78;5135813;27;20424;-79
2022/10/17 01:47:30;;;;;;;16.17;8.67;;;;;;;-141.28;100.00;49470.63;5136093;27;20444;-75
2022/10/17 01:50:01;;;;;;;12.70;8.30;;;;;;;-141.28;100.00;49492.22;5135914;27;20523;-78
2022/10/17 01:52:34;;;;;;;16.40;9.60;;;;;;;-141.28;100.00;49507.91;5135674;27;20451;-77
2022/10/17 01:55:08;;;;;;;24.90;10.13;;;;;;;-141.28;100.00;49490.25;5135549;27;20506;-77
2022/10/17 01:57:40;;;;;;;14.53;8.40;;;;;;;-141.28;100.00;49502.03;5135851;27;20443;-78
2022/10/17 02:00:12;;;;;;;20.37;9.03;;;;;;;-141.28;100.00;49509.88;5136020;27;20432;-78
2022/10/17 02:02:43;;;;;;;16.03;8.20;;;;;;;-141.28;100.00;49513.78;5135517;27;20825;-76
2022/10/17 02:05:11;;;;;;;10.37;6.40;;;;;;;-141.28;100.00;49521.63;5102988;27;20845;-79
2022/10/17 02:07:38;;;;;;;10.63;6.50;;;;;;;-141.28;100.00;49545.19;5135558;27;20432;-79
2022/10/17 02:10:16;;;;;;;16.27;10.60;;;;;;;-141.28;100.00;49556.97;5134699;27;20484;-77
2022/10/17 02:12:54;;;;;;;11.37;7.33;;;;;;;-141.28;100.00;49594.25;5134936;27;20467;-75
2022/10/17 02:15:41;;;;;;;11.83;6.07;;;;;;;-141.28;100.00;49596.22;5135214;27;20447;-80
2022/10/17 02:18:30;;;;;;;9.13;6.17;;;;;;;-141.28;100.00;49609.94;5135186;27;20676;-77
2022/10/17 02:21:03;;;;;;;10.40;6.37;;;;;;;-141.28;100.00;49588.34;5135050;27;20913;-77
2022/10/17 02:23:37;;;;;;;13.67;6.87;;;;;;;-141.28;100.00;49584.44;5135131;27;20987;-75
2022/10/17 02:26:11;;;;;;;10.90;6.90;;;;;;;-141.28;100.00;49596.22;5134951;27;20443;-75
2022/10/17 02:28:47;;;;;;;13.63;7.57;;;;;;;-141.28;100.00;49609.94;5135045;27;20504;-77
2022/10/17 02:31:17;;;;;;;10.60;7.63;;;;;;;-141.28;100.00;49584.44;5135143;27;20451;-76
2022/10/17 02:33:54;;;;;;;18.90;7.77;;;;;;;-141.28;100.00;49602.09;5134341;27;20490;-79
2022/10/17 02:36:26;;;;;;;11.73;6.50;;;;;;;-141.28;100.00;49623.69;5135084;27;20812;-78
2022/10/17 02:38:55;;;;;;;14.90;8.47;;;;;;;-141.28;100.00;49635.47;5134615;27;20442;-76
2022/10/17 02:41:24;;;;;;;11.03;7.80;;;;;;;-141.28;100.00;49666.84;5135038;27;20451;-76
2022/10/17 02:43:53;;;;;;;12.03;6.80;;;;;;;-141.28;100.00;49633.50;5121355;27;20440;-80
2022/10/17 02:46:23;;;;;;;15.37;7.47;;;;;;;-141.28;100.00;49694.31;5134236;27;20460;-76
2022/10/17 02:48:55;;;;;;;12.00;7.50;;;;;;;-141.28;100.00;49706.09;5133926;27;20796;-75
2022/10/17 02:51:32;;;;;;;14.80;7.70;;;;;;;-141.28;100.00;49694.31;5134602;27;20439;-77
2022/10/17 02:54:08;;;;;;;12.93;7.33;;;;;;;-141.28;100.00;49723.75;5137546;27;20479;-76
2022/10/17 02:56:41;;;;;;;10.83;7.40;;;;;;;-141.28;100.00;49731.63;5134977;27;20432;-80
2022/10/17 02:59:12;;;;;;;12.40;7.70;;;;;;;-141.28;100.00;49729.66;5134507;27;20464;-78
2022/10/17 03:01:39;;;;;;;13.50;7.90;;;;;;;-141.28;100.00;49733.56;5133831;27;20448;-77
2022/10/17 03:04:17;;;;;;;20.17;7.97;;;;;;;-141.28;100.00;49761.06;5134571;27;20455;-78
2022/10/17 03:06:46;;;;;;;14.23;8.20;;;;;;;-141.28;100.00;49753.19;5135629;27;20489;-78
2022/10/17 03:09:13;;;;;;;28.77;11.33;;;;;;;-141.28;100.00;49770.88;5134221;27;20880;-76
2022/10/17 03:11:41;;;;;;;20.77;10.60;;;;;;;-141.28;100.00;49768.91;5134002;27;20964;-79
2022/10/17 03:14:09;;;;;;;23.40;11.77;;;;;;;-141.28;100.00;49757.13;5133954;27;20996;-76
2022/10/17 03:16:36;;;;;;;23.87;12.63;;;;;;;-141.28;100.00;49776.75;5134208;27;20873;-76
2022/10/17 03:19:04;;;;;;;22.57;12.43;;;;;;;-141.28;100.00;49796.38;5133537;27;21026;-77
2022/10/17 03:21:35;;;;;;;19.43;11.60;;;;;;;-141.28;100.00;49812.06;5133848;27;20443;-78
2022/10/17 03:24:02;;;;;;;27.40;12.03;;;;;;;-141.28;100.00;49816.00;5133274;27;20888;-78
2022/10/17 03:26:29;;;;;;;24.37;13.30;;;;;;;-141.28;100.00;49808.16;5133628;27;20455;-76
2022/10/17 03:28:57;;;;;;;26.83;14.90;;;;;;;-141.28;100.00;49827.78;5133816;27;20538;-79
2022/10/17 03:31:24;;;;;;;28.23;14.20;;;;;;;-141.28;100.00;49808.16;5115461;27;20923;-79
2022/10/17 03:33:51;;;;;;;25.63;13.37;;;;;;;-141.28;100.00;49851.31;5133408;27;20685;-78
2022/10/17 03:36:19;;;;;;;23.00;14.70;;;;;;;-141.28;100.00;49839.56;5133783;27;20448;-74
2022/10/17 03:38:49;;;;;;;27.37;15.53;;;;;;;-141.28;100.00;49863.09;5133511;27;20481;-76
2022/10/17 03:41:15;;;;;;;35.80;16.43;;;;;;;-141.28;100.00;49870.94;5133554;27;20451;-75
2022/10/17 03:43:43;;;;;;;31.23;15.83;;;;;;;-141.28;100.00;49888.63;5133538;27;20984;-83
2022/10/17 03:46:10;;;;;;;24.53;14.50;;;;;;;-141.28;100.00;49847.41;5132224;27;20523;-77
2022/10/17 03:48:38;;;;;;;22.77;15.17;;;;;;;-141.28;100.00;49863.09;5133765;27;20448;-74
2022/10/17 03:51:07;;;;;;;29.60;15.43;;;;;;;-141.28;100.00;49900.38;5133095;27;20977;-78
2022/10/17 03:53:34;;;;;;;25.90;14.67;;;;;;;-141.28;100.00;49878.81;5132816;27;20448;-77
2022/10/17 03:56:11;;;;;;;24.93;13.93;;;;;;;-141.28;100.00;49896.47;5132796;27;20493;-76
2022/10/17 03:58:39;;;;;;;22.73;12.10;;;;;;;-141.28;100.00;49867.03;5133194;27;20969;-80
2022/10/17 04:01:06;;;;;;;31.83;12.37;;;;;;;-141.28;100.00;49904.31;5132626;27;20452;-76
2022/10/17 04:03:33;;;;;;;20.07;12.23;;;;;;;-141.28;100.00;49933.75;5132949;27;20448;-78
2022/10/17 04:06:00;;;;;;;23.67;12.37;;;;;;;-141.28;100.00;49949.44;5133335;27;20456;-77
2022/10/17 04:08:28;;;;;;;32.20;13.07;;;;;;;-141.28;100.00;49945.53;5132645;27;20486;-75
2022/10/17 04:10:58;;;;;;;19.73;11.93;;;;;;;-141.28;100.00;49980.84;5133209;27;20462;-77
2022/10/17 04:13:28;;;;;;;31.17;12.70;;;;;;;-141.28;100.00;50000.47;5133741;27;20443;-77
2022/10/17 04:15:56;;;;;;;26.77;12.77;;;;;;;-141.28;100.00;50014.22;5135330;27;20504;-76
2022/10/17 04:18:23;;;;;;;26.10;13.70;;;;;;;-141.28;100.00;50022.06;5132886;27;20448;-75
2022/10/17 04:20:50;;;;;;;27.57;13.07;;;;;;;-141.28;100.00;50029.91;5141556;27;20428;-76
2022/10/17 04:23:17;;;;;;;31.20;13.33;;;;;;;-141.28;100.00;50033.84;5139121;27;20459;-76
2022/10/17 04:25:44;;;;;;;32.73;13.07;;;;;;;-141.28;100.00;50071.13;5136129;27;20436;-76
2022/10/17 04:28:11;;;;;;;49.57;13.53;;;;;;;-141.28;100.00;50090.75;5134643;27;20501;-79
2022/10/17 04:30:40;;;;;;;40.53;12.87;;;;;;;-141.28;100.00;50108.44;5132696;27;20501;-78
2022/10/17 04:33:09;;;;;;;26.63;11.43;;;;;;;-141.28;100.00;50094.69;5132443;27;20451;-75
2022/10/17 04:35:36;;;;;;;21.93;10.03;;;;;;;-141.28;100.00;50108.44;5132449;27;20484;-76
2022/10/17 04:38:04;;;;;;;33.67;12.13;;;;;;;-141.28;100.00;50130.00;5132534;27;20508;-77
2022/10/17 04:40:34;;;;;;;30.53;13.33;;;;;;;-141.28;100.00;50153.56;5132001;27;20829;-75
2022/10/17 04:43:01;;;;;;;47.80;23.23;;;;;;;-141.28;100.00;50161.41;5132256;27;20444;-79
2022/10/17 04:45:30;;;;;;;44.33;22.43;;;;;;;-141.28;100.00;50173.19;5132116;27;20450;-76
2022/10/17 04:47:59;;;;;;;39.23;21.83;;;;;;;-141.28;100.00;50184.97;5132087;27;20526;-76
2022/10/17 04:50:27;;;;;;;48.17;20.90;;;;;;;-141.28;100.00;50181.03;5132375;27;20448;-75
2022/10/17 04:52:54;;;;;;;39.00;17.13;;;;;;;-141.28;100.00;50153.56;5134979;28;20440;-76
2022/10/17 04:55:21;;;;;;;31.90;14.33;;;;;;;-141.28;100.00;50183.00;5134961;28;20515;-78
2022/10/17 04:57:48;;;;;;;27.73;13.57;;;;;;;-141.28;100.00;50247.78;5132446;27;20476;-75
2022/10/17 05:00:15;;;;;;;28.20;13.73;;;;;;;-141.28;100.00;50259.56;5132364;28;20958;-77
2022/10/17 05:02:42;;;;;;;26.70;12.07;;;;;;;-141.28;100.00;50265.44;5132179;28;20949;-80
2022/10/17 05:05:11;;;;;;;26.03;13.10;;;;;;;-141.28;100.00;50304.69;5132064;28;20766;-76
2022/10/17 05:07:40;;;;;;;34.17;13.13;;;;;;;-141.28;100.00;50294.88;5132525;28;20448;-76
2022/10/17 05:10:08;;;;;;;28.23;13.27;;;;;;;-141.28;100.00;50322.34;5132834;28;20474;-76
2022/10/17 05:12:35;;;;;;;36.13;12.47;;;;;;;-141.28;100.00;50292.91;5136050;27;20439;-76
2022/10/17 05:15:02;;;;;;;39.73;12.47;;;;;;;-141.28;100.00;50330.22;5137045;27;20494;-78
2022/10/17 05:17:29;;;;;;;48.93;13.10;;;;;;;-141.28;100.00;50381.25;5136372;27;20443;-78
2022/10/17 05:19:58;;;;;;;35.07;12.77;;;;;;;-141.28;100.00;50355.72;5144463;27;20444;-75
2022/10/17 05:22:26;;;;;;;48.30;13.93;;;;;;;-141.28;100.00;50385.16;5147990;27;20439;-74
2022/10/17 05:24:53;;;;;;;31.97;13.80;;;;;;;-141.28;100.00;50471.53;5140667;27;20459;-75
2022/10/17 05:27:21;;;;;;;32.57;12.83;;;;;;;-141.28;100.00;50616.78;5137414;27;20798;-78
2022/10/17 05:29:48;;;;;;;42.83;12.90;;;;;;;-141.28;100.00;50616.78;5136693;27;20447;-78
2022/10/17 05:32:15;;;;;;;31.07;11.83;;;;;;;-141.28;100.00;50891.63;5136607;27;20450;-80
2022/10/17 05:34:42;;;;;;;22.33;10.80;;;;;;;-141.28;100.00;51087.94;5136083;27;20475;-77
2022/10/17 05:37:09;;;;;;;27.33;11.07;;;;;;;-141.28;100.00;51288.19;5136134;27;20240;-75
2022/10/17 05:39:37;;;;;;;33.07;11.60;;;;;;;-141.28;100.00;51327.44;5136514;27;20195;-78
2022/10/17 05:42:05;;;;;;;21.70;10.77;;;;;;;-141.28;100.00;51419.72;5136116;27;20202;-76
2022/10/17 05:44:33;;;;;;;28.83;11.47;;;;;;;-141.28;100.00;51003.50;5136154;27;20224;-78
2022/10/17 05:47:00;;;;;;;31.40;11.17;;;;;;;-141.28;100.00;50469.56;5136383;27;20202;-76
2022/10/17 05:49:28;;;;;;;32.37;11.90;;;;;;;-141.28;100.00;50342.00;5135742;27;20213;-79
2022/10/17 05:51:55;;;;;;;32.13;12.20;;;;;;;-141.28;100.00;50648.19;5135985;27;20380;-79
2022/10/17 05:54:21;;;;;;;30.40;12.03;;;;;;;-141.28;100.00;50656.06;5135491;27;20222;-75
2022/10/17 05:56:53;;;;;;;24.93;11.77;;;;;;;-141.28;100.00;50656.06;5136245;27;20190;-78
2022/10/17 05:59:22;;;;;;;32.40;11.90;;;;;;;-141.28;100.00;50428.34;5138607;27;20218;-76
2022/10/17 06:01:48;;;;;;;28.30;11.33;;;;;;;-141.28;100.00;50465.66;5135585;27;20190;-77
2022/10/17 06:04:16;;;;;;;33.90;12.27;;;;;;;-141.28;100.00;50661.94;5135946;27;20618;-77
2022/10/17 06:09:34;;;;;;;24.13;12.67;;;;;;;-141.28;100.00;51066.34;5122717;27;20234;-77
2022/10/17 06:12:04;;;;;;;23.07;12.57;;;;;;;-141.28;100.00;51137.00;5135273;27;20651;-77
2022/10/17 06:14:31;;;;;;;23.33;12.07;;;;;;;-141.28;100.00;51152.72;5135437;27;20214;-77
2022/10/17 06:16:59;;;;;;;20.57;11.17;;;;;;;-141.28;100.00;51164.50;5135357;27;20199;-76
2022/10/17 06:19:26;;;;;;;21.57;11.70;;;;;;;-141.28;100.00;51288.19;5135394;27;20206;-78
2022/10/17 06:21:55;;;;;;;26.23;11.30;;;;;;;-141.28;100.00;51358.88;5135497;27;20297;-79
2022/10/17 06:27:05;;;;;;;21.33;10.70;;;;;;;-141.28;100.00;51327.44;5123228;27;20198;-77
2022/10/17 06:29:33;;;;;;;21.80;11.13;;;;;;;-141.28;100.00;51252.84;5136280;27;20209;-75
2022/10/17 06:32:00;;;;;;;20.70;11.80;;;;;;;-141.28;100.00;51219.47;5136152;27;20209;-78
2022/10/17 06:34:27;;;;;;;22.60;12.07;;;;;;;-141.28;100.00;51184.13;5135510;27;20763;-76
2022/10/17 06:36:55;;;;;;;21.20;12.37;;;;;;;-141.28;100.00;51103.63;5135397;27;20202;-76
2022/10/17 06:39:25;;;;;;;25.43;13.53;;;;;;;-141.28;100.00;51142.91;5134703;27;20590;-76
2022/10/17 06:41:52;;;;;;;33.10;14.43;;;;;;;-141.28;100.00;51093.81;5134881;27;20198;-76
2022/10/17 06:44:21;;;;;;;28.23;12.90;;;;;;;-141.28;100.00;51048.66;5134495;27;20202;-75
2022/10/17 06:46:48;;;;;;;19.07;12.27;;;;;;;-141.28;100.00;51046.69;5134701;27;20551;-77
2022/10/17 06:49:16;;;;;;;22.07;12.97;;;;;;;-141.28;100.00;50970.13;5134080;27;20198;-76
2022/10/17 06:51:43;;;;;;;18.23;11.93;;;;;;;-141.28;100.00;50834.69;5134888;27;20191;-77
2022/10/17 06:54:10;;;;;;;21.33;13.17;;;;;;;-141.28;100.00;50744.38;5137573;27;20205;-75
2022/10/17 06:56:37;;;;;;;19.63;12.33;;;;;;;-141.28;100.00;50777.75;5139208;27;20222;-78
2022/10/17 06:59:04;;;;;;;20.37;11.33;;;;;;;-141.28;100.00;50824.88;5134060;27;20235;-77
2022/10/17 07:01:33;;;;;;;20.00;11.97;;;;;;;-141.28;100.00;50754.19;5134493;27;20205;-79
2022/10/17 07:04:01;;;;;;;22.23;11.93;;;;;;;-141.28;100.00;50628.56;5120820;27;20195;-77
2022/10/17 07:06:28;;;;;;;19.57;12.00;;;;;;;-141.28;100.00;50603.06;5134342;27;20205;-79
2022/10/17 07:08:56;;;;;;;18.53;11.87;;;;;;;-141.28;100.00;50644.28;5134224;27;20225;-80
2022/10/17 07:11:24;;;;;;;18.70;11.50;;;;;;;-141.28;100.00;50601.09;5134006;27;20209;-79
2022/10/17 07:13:52;;;;;;;18.00;12.07;;;;;;;-141.28;100.00;50532.38;5134469;27;20198;-78
2022/10/17 07:16:20;;;;;;;19.77;12.47;;;;;;;-141.28;100.00;50575.56;5134371;27;20286;-77
2022/10/17 07:18:51;;;;;;;17.97;11.47;;;;;;;-141.28;100.00;50640.34;5134465;27;20292;-76
2022/10/17 07:21:18;;;;;;;28.60;12.37;;;;;;;-141.28;100.00;50591.28;5134750;27;20563;-75
2022/10/17 07:23:45;;;;;;;18.93;11.67;;;;;;;-141.28;100.00;50475.47;5134155;27;20203;-75
2022/10/17 07:26:14;;;;;;;19.20;11.80;;;;;;;-141.28;100.00;50310.59;5133502;27;20206;-77
2022/10/17 07:28:43;;;;;;;22.87;12.87;;;;;;;-141.28;100.00;50353.75;5133672;27;20209;-75
2022/10/17 07:31:12;;;;;;;24.17;12.70;;;;;;;-141.28;100.00;50593.22;5115453;27;20198;-77
2022/10/17 07:33:39;;;;;;;26.13;14.03;;;;;;;-141.28;100.00;50618.75;5133722;27;20684;-77
2022/10/17 07:36:09;;;;;;;25.70;12.37;;;;;;;-141.28;100.00;50650.16;5132857;27;20226;-77
2022/10/17 07:38:39;;;;;;;26.10;12.90;;;;;;;-141.28;100.00;50330.22;5133966;27;20206;-76
2022/10/17 07:41:08;;;;;;;33.80;13.97;;;;;;;-141.28;100.00;50420.50;5115412;27;20231;-80
2022/10/17 07:43:37;;;;;;;27.07;13.03;;;;;;;-141.28;100.00;50538.28;5133583;27;20206;-76
2022/10/17 07:46:07;;;;;;;30.20;13.00;;;;;;;-141.28;100.00;50459.75;5115312;27;20274;-77
2022/10/17 07:48:35;;;;;;;27.60;13.57;;;;;;;-141.28;100.00;50387.13;5133323;27;20206;-76
2022/10/17 07:51:03;;;;;;;26.67;12.83;;;;;;;-141.28;100.00;50277.22;5133319;27;20198;-77
2022/10/17 07:53:34;;;;;;;29.77;13.50;;;;;;;-141.28;100.00;50495.09;5133137;27;20233;-79
2022/10/17 07:56:05;;;;;;;31.87;12.17;;;;;;;-141.28;100.00;50620.72;5133177;27;20734;-79
2022/10/17 07:58:32;;;;;;;27.53;13.03;;;;;;;-141.28;100.00;50628.56;5132934;27;20742;-78
2022/10/17 08:01:01;;;;;;;23.67;13.13;;;;;;;-141.28;100.00;50526.50;5132694;27;20584;-79
2022/10/17 08:03:28;;;;;;;29.50;13.27;;;;;;;-141.28;100.00;50442.09;5132741;27;20194;-76
2022/10/17 08:05:59;;;;;;;30.67;12.70;;;;;;;-141.28;100.00;50322.34;5133050;27;20194;-78
2022/10/17 08:08:28;;;;;;;23.00;12.80;;;;;;;-141.28;100.00;50247.78;5132932;27;20209;-77
2022/10/17 08:11:02;;;;;;;20.73;12.13;;;;;;;-141.28;100.00;50579.50;5132996;27;20222;-77
2022/10/17 08:13:30;;;;;;;26.13;12.30;;;;;;;-141.28;100.00;50251.69;5120202;27;20252;-78
2022/10/17 08:16:00;;;;;;;24.30;11.57;;;;;;;-141.28;100.00;50137.88;5132549;27;20218;-77
2022/10/17 08:18:27;;;;;;;25.37;12.10;;;;;;;-141.28;100.00;50149.63;5132988;27;20584;-75
2022/10/17 08:20:56;;;;;;;27.03;12.13;;;;;;;-141.28;100.00;50002.44;5132978;27;20252;-78
2022/10/17 08:23:23;;;;;;;21.43;11.70;;;;;;;-141.28;100.00;50275.25;5132793;27;20202;-75
2022/10/17 08:25:51;;;;;;;31.23;12.50;;;;;;;-141.28;100.00;50063.28;5132567;27;20221;-76
2022/10/17 08:28:21;;;;;;;28.10;12.33;;;;;;;-141.28;100.00;50102.53;5132745;27;20263;-77
2022/10/17 08:30:48;;;;;;;28.17;12.33;;;;;;;-141.28;100.00;50159.44;5131867;27;20209;-80
2022/10/17 08:33:15;;;;;;;29.33;12.27;;;;;;;-141.28;100.00;50130.00;5132741;27;20251;-77
2022/10/17 08:35:44;;;;;;;31.07;12.40;;;;;;;-141.28;100.00;50237.97;5119314;27;20221;-78
2022/10/17 08:38:10;;;;;;;24.57;11.17;;;;;;;-141.28;100.00;50149.63;5131948;27;20206;-77
2022/10/17 08:40:41;;;;;;;26.03;10.47;;;;;;;-141.28;100.00;50012.25;5129968;27;20190;-76
2022/10/17 08:43:24;;;;;;;34.97;11.80;;;;;;;-141.28;100.00;49812.06;5134885;27;20239;-78
2022/10/17 08:46:01;;;;;;;26.77;10.73;;;;;;;-141.28;100.00;49592.28;5133720;27;20202;-80
2022/10/17 08:48:32;;;;;;;25.20;9.93;;;;;;;-141.28;100.00;49460.81;5132962;27;20668;-78
2022/10/17 08:51:03;;;;;;;20.33;9.37;;;;;;;-141.28;100.00;49443.16;5132098;27;20683;-77
2022/10/17 08:53:35;;;;;;;22.63;9.00;;;;;;;-141.28;100.00;49364.66;5131843;28;20757;-78
2022/10/17 08:56:09;;;;;;;26.00;10.27;;;;;;;-141.28;100.00;49405.88;5132243;28;20591;-79
2022/10/17 08:58:40;;;;;;;17.17;9.37;;;;;;;-141.28;100.00;49356.81;5132352;28;20218;-79
2022/10/17 09:01:18;;;;;;;21.27;10.23;;;;;;;-141.28;100.00;49243.00;5132709;28;20210;-78
2022/10/17 09:03:59;;;;;;;20.27;9.33;;;;;;;-141.28;100.00;49286.16;5133442;28;20214;-78
2022/10/17 09:06:32;;;;;;;13.90;9.17;;;;;;;-141.28;100.00;49282.25;5132457;28;20213;-78
2022/10/17 09:09:18;;;;;;;16.07;9.10;;;;;;;-141.28;100.00;49376.44;5130275;28;20704;-80
2022/10/17 09:11:59;;;;;;;20.70;9.67;;;;;;;-141.28;100.00;49384.28;5123482;28;20209;-79
2022/10/17 09:14:48;;;;;;;22.40;9.07;;;;;;;-141.28;100.00;49331.31;5132049;28;20306;-80
2022/10/17 09:17:27;;;;;;;17.43;8.63;;;;;;;-141.28;100.00;49278.31;5131947;28;20294;-79
2022/10/17 09:20:03;;;;;;;16.63;7.57;;;;;;;-141.28;100.00;49564.81;5131873;28;20209;-77
2022/10/17 09:22:36;;;;;;;12.13;7.20;;;;;;;-141.28;100.00;49152.75;5132487;28;20202;-77
2022/10/17 09:25:13;;;;;;;16.23;7.33;;;;;;;-141.28;100.00;49227.31;5132328;28;20700;-79
2022/10/17 09:27:45;;;;;;;12.50;6.40;;;;;;;-141.28;100.00;49033.06;5119250;28;20202;-79
2022/10/17 09:30:38;;;;;;;10.93;5.73;;;;;;;-141.28;97.79;49211.59;5131986;28;20208;-78
2022/10/17 09:33:12;;;;;;;11.03;6.73;;;;;;;-141.28;89.10;49219.47;5131910;28;20259;-76
2022/10/17 09:35:41;;;;;;;11.43;6.73;;;;;;;-141.28;86.09;49233.19;5131722;28;20645;-77
2022/10/17 09:38:14;;;;;;;15.77;6.57;;;;;;;-141.28;87.29;49231.22;5131871;28;20747;-76
2022/10/17 09:40:41;;;;;;;13.00;6.30;;;;;;;-141.28;83.44;49268.50;5131840;28;20202;-78
2022/10/17 09:43:11;;;;;;;15.63;6.20;;;;;;;-141.28;80.97;49156.66;5131794;28;20250;-77
2022/10/17 09:45:46;;;;;;;8.20;5.60;;;;;;;-141.28;75.76;49262.63;5113550;28;20202;-78
2022/10/17 09:48:23;;;;;;;7.90;4.70;;;;;;;-141.28;71.54;49227.31;5132178;28;20209;-82
2022/10/17 09:50:51;;;;;;;10.10;3.87;;;;;;;-141.28;67.35;49180.22;5132481;28;20198;-79
2022/10/17 09:53:22;;;;;;;9.17;4.23;;;;;;;-141.28;64.24;49180.22;5131565;28;20198;-78
2022/10/17 09:55:54;;;;;;;7.50;3.80;;;;;;;-141.28;61.28;49219.47;5131943;28;20226;-80
2022/10/17 09:58:22;;;;;;;8.67;3.73;;;;;;;-141.28;60.35;49195.91;5132738;27;20214;-78
2022/10/17 10:00:51;;;;;;;5.80;3.70;;;;;;;-141.28;59.67;49140.97;5135750;27;20285;-77
2022/10/17 10:03:19;;;;;;;6.43;3.43;;;;;;;-141.28;57.74;49227.31;5124980;27;20208;-76
2022/10/17 10:06:01;;;;;;;3.80;3.13;;;;;;;-141.28;58.90;49223.38;5117346;27;20233;-76
2022/10/17 10:08:31;;;;;;;8.77;3.10;;;;;;;-141.28;53.76;49227.31;5135077;27;20633;-78
2022/10/17 10:11:02;;;;;;;10.03;3.00;;;;;;;-141.28;53.88;49239.09;5135471;27;20216;-80
2022/10/17 10:13:29;;;;;;;6.70;3.40;;;;;;;-141.28;55.33;49207.69;5136034;27;20281;-77
2022/10/17 10:16:15;;;;;;;8.50;3.40;;;;;;;-141.28;56.70;49258.69;5122015;27;20218;-76
2022/10/17 10:18:43;;;;;;;7.97;3.53;;;;;;;-141.28;57.71;49195.91;5134745;27;20331;-77
2022/10/17 10:21:12;;;;;;;6.83;3.53;;;;;;;-141.28;57.89;49203.75;5116356;27;20695;-76
2022/10/17 10:23:41;;;;;;;11.33;3.73;;;;;;;-141.28;56.95;49021.28;5135509;27;20210;-80
2022/10/17 10:26:25;;;;;;;4.87;3.60;;;;;;;-141.28;57.54;49195.91;5134410;27;20209;-77
2022/10/17 10:28:57;;;;;;;8.37;3.50;;;;;;;-141.28;55.55;49180.22;5136899;27;20219;-76
2022/10/17 10:31:32;;;;;;;7.50;3.53;;;;;;;-141.28;54.91;49148.81;5134984;27;20602;-76
2022/10/17 10:34:02;;;;;;;8.20;3.67;;;;;;;-141.28;52.60;49097.81;5135268;27;20197;-76
2022/10/17 10:36:44;;;;;;;9.23;4.57;;;;;;;-141.28;50.24;49072.31;5134857;27;20226;-78
2022/10/17 10:39:40;;;;;;;5.03;3.00;;;;;;;-141.28;49.48;49101.72;5123267;27;20203;-76
2022/10/17 10:42:18;;;;;;;3.50;2.97;;;;;;;-141.28;48.38;49074.25;5134175;27;20205;-80
2022/10/17 10:44:45;;;;;;;5.50;2.80;;;;;;;-141.28;48.50;49062.50;5134855;27;20197;-76
2022/10/17 10:47:30;;;;;;;3.63;2.83;;;;;;;-141.28;47.21;49082.13;5134775;27;20205;-79
2022/10/17 10:50:17;;;;;;;4.80;3.10;;;;;;;-141.28;46.92;49050.72;5134719;27;20199;-77
2022/10/17 10:52:50;;;;;;;3.17;2.87;;;;;;;-141.28;48.01;49058.56;5134748;27;20206;-77
2022/10/17 10:55:25;;;;;;;6.40;3.73;;;;;;;-141.28;48.18;49747.31;5122208;27;20209;-77
2022/10/17 10:58:00;;;;;;;4.73;2.77;;;;;;;-141.28;49.19;49097.81;5134534;27;20237;-76
2022/10/17 11:00:29;;;;;;;6.77;3.20;;;;;;;-141.28;48.46;49140.97;5134716;27;20285;-78
2022/10/17 11:03:04;;;;;;;5.27;3.03;;;;;;;-141.28;47.31;49192.00;5134411;27;20210;-75
2022/10/17 11:05:41;;;;;;;4.77;3.37;;;;;;;-141.28;46.71;49078.19;5134367;27;20209;-76
2022/10/17 11:08:19;;;;;;;5.63;2.90;;;;;;;-141.28;45.69;49084.06;5134297;27;20203;-77
2022/10/17 11:11:00;;;;;;;7.07;3.40;;;;;;;-141.28;46.15;49052.69;5132943;27;20290;-76
2022/10/17 11:13:34;;;;;;;5.77;3.10;;;;;;;-141.28;46.04;49042.88;5134283;27;20204;-77
2022/10/17 11:16:12;;;;;;;4.37;3.13;;;;;;;-141.28;46.09;48980.09;5134403;27;20223;-77
2022/10/17 11:18:45;;;;;;;4.53;2.80;;;;;;;-141.28;44.56;48933.00;5134157;27;20195;-81
2022/10/17 11:21:16;;;;;;;4.47;3.07;;;;;;;-141.28;44.00;49015.41;5134161;27;20212;-77